Terminal Aerodrome Forecast
Issued by NWS Boston, MA

Home | Current Version | Previous Version | Text Only | Print | Product List | Glossary On
Versions: 1 2 3 4 5 6 7 8 9 10 11 12 13 14 15 16 17 18 19 20 21 22 23 24 25 26 27 28 29 30 31 32 33 34 35 36 37 38 39 40 41 42 43 44 45 46
000
FTUS41 KBOX 252008 AAA
TAFBDL
TAF AMD
KBDL 252008Z 2520/2624 34008KT P6SM FEW060
     FM260200 34004KT P6SM SKC
     FM261500 11004KT P6SM FEW250
     FM262200 17008KT P6SM FEW120 OVC250=

USA.gov is the U.S. government's official web portal to all federal, state and local government web resources and services.